createdAt,value
2023-05-31T00:01:49.764Z,99.90
2023-05-31T00:04:16.528Z,99.90
2023-05-31T00:06:43.328Z,99.90
2023-05-31T00:09:10.104Z,99.90
2023-05-31T00:11:37.114Z,99.90
2023-05-31T00:14:05.323Z,99.90
2023-05-31T00:17:03.311Z,99.90
2023-05-31T00:19:20.591Z,99.90
2023-05-31T00:21:47.590Z,99.90
2023-05-31T00:24:14.489Z,99.90
2023-05-31T00:26:41.253Z,99.90
2023-05-31T00:29:09.518Z,99.90
2023-05-31T00:31:36.323Z,99.90
2023-05-31T00:34:03.238Z,99.90
2023-05-31T00:36:30.005Z,99.90
2023-05-31T00:38:56.777Z,99.90
2023-05-31T00:41:23.567Z,99.90
2023-05-31T00:43:50.376Z,99.90
2023-05-31T00:46:28.772Z,99.90
2023-05-31T00:48:56.524Z,99.90
2023-05-31T00:51:25.027Z,99.90
2023-05-31T00:53:52.893Z,99.90
2023-05-31T00:56:20.151Z,99.90
2023-05-31T00:58:47.447Z,99.90
2023-05-31T01:01:15.377Z,99.90
2023-05-31T01:03:43.592Z,99.90
2023-05-31T01:06:11.170Z,99.90
2023-05-31T01:08:41.641Z,99.90
2023-05-31T01:11:13.737Z,99.90
2023-05-31T01:13:47.809Z,99.90
2023-05-31T01:16:22.788Z,99.90
2023-05-31T01:18:57.413Z,99.90
2023-05-31T01:21:38.620Z,99.90
2023-05-31T01:24:22.015Z,99.90
2023-05-31T01:26:51.328Z,99.90
2023-05-31T01:29:19.869Z,99.90
2023-05-31T01:31:47.948Z,99.90
2023-05-31T01:34:15.352Z,99.90
2023-05-31T01:36:42.128Z,99.90
2023-05-31T01:39:10.205Z,99.90
2023-05-31T01:41:39.418Z,99.90
2023-05-31T01:44:08.379Z,99.90
2023-05-31T01:46:35.371Z,99.90
2023-05-31T01:49:02.841Z,99.90
2023-05-31T01:51:31.040Z,99.90
2023-05-31T01:53:58.145Z,99.90
2023-05-31T01:56:26.277Z,99.90
2023-05-31T01:58:53.710Z,99.90
2023-05-31T02:01:23.217Z,99.90
2023-05-31T02:03:50.742Z,99.90
2023-05-31T02:06:17.914Z,99.90
2023-05-31T02:08:45.027Z,99.90
2023-05-31T02:11:12.037Z,99.90
2023-05-31T02:13:38.819Z,99.90
2023-05-31T02:16:06.320Z,99.90
2023-05-31T02:18:34.405Z,99.90
2023-05-31T02:21:01.318Z,99.90
2023-05-31T02:23:28.378Z,99.90
2023-05-31T02:25:55.201Z,99.90
2023-05-31T02:28:22.240Z,99.90
2023-05-31T02:30:55.996Z,99.90
2023-05-31T02:33:22.828Z,99.90
2023-05-31T02:35:50.948Z,99.90
2023-05-31T02:38:17.845Z,99.90
2023-05-31T02:40:44.639Z,99.90
2023-05-31T02:43:11.510Z,99.90
2023-05-31T02:45:38.296Z,99.90
2023-05-31T02:48:05.393Z,99.90
2023-05-31T02:50:32.931Z,99.90
2023-05-31T02:53:01.341Z,99.90
2023-05-31T02:55:28.309Z,99.90
2023-05-31T02:57:55.066Z,99.90
2023-05-31T03:00:21.884Z,99.90
2023-05-31T03:02:48.715Z,99.90
2023-05-31T03:05:15.589Z,99.90
2023-05-31T03:07:42.364Z,99.90
2023-05-31T03:10:10.907Z,99.90
2023-05-31T03:12:37.785Z,99.90
2023-05-31T03:15:05.643Z,99.90
2023-05-31T03:17:32.504Z,99.90
2023-05-31T03:19:59.387Z,99.90
2023-05-31T03:22:26.791Z,99.90
2023-05-31T03:24:53.791Z,99.90
2023-05-31T03:27:21.944Z,99.90
2023-05-31T03:29:48.769Z,99.90
2023-05-31T03:32:15.557Z,99.90
2023-05-31T03:34:42.387Z,99.90
2023-05-31T03:37:09.201Z,99.90
2023-05-31T03:39:36.289Z,99.90
2023-05-31T03:42:03.158Z,99.90
2023-05-31T03:44:31.300Z,99.90
2023-05-31T03:46:58.484Z,99.90
2023-05-31T03:49:25.299Z,99.90
2023-05-31T03:51:52.388Z,99.90
2023-05-31T03:54:20.957Z,99.90
2023-05-31T03:56:47.751Z,99.90
2023-05-31T03:59:14.639Z,99.90
2023-05-31T04:01:42.812Z,99.90
2023-05-31T04:04:09.715Z,99.90
2023-05-31T04:06:36.594Z,99.90
2023-05-31T04:09:03.485Z,99.90
2023-05-31T04:11:30.282Z,99.90
2023-05-31T04:13:57.154Z,99.90
2023-05-31T04:16:26.251Z,99.90
2023-05-31T04:18:55.181Z,99.90
2023-05-31T04:21:22.217Z,99.90
2023-05-31T04:23:49.643Z,99.90
2023-05-31T04:26:17.118Z,99.90
2023-05-31T04:28:46.031Z,99.90
2023-05-31T04:31:12.701Z,99.90
2023-05-31T04:33:39.514Z,99.90
2023-05-31T04:36:08.883Z,99.90
2023-05-31T04:38:35.631Z,99.90
2023-05-31T04:41:05.412Z,99.90
2023-05-31T04:43:37.418Z,99.90
2023-05-31T04:46:04.224Z,99.90
2023-05-31T04:48:31.012Z,99.90
2023-05-31T04:51:02.638Z,99.90
2023-05-31T04:53:31.008Z,99.90
2023-05-31T04:55:57.756Z,99.90
2023-05-31T04:58:27.379Z,99.90
2023-05-31T05:00:54.175Z,99.90
2023-05-31T05:03:21.025Z,99.90
2023-05-31T05:05:51.017Z,99.90
2023-05-31T05:08:19.335Z,99.90
2023-05-31T05:10:49.986Z,99.90
2023-05-31T05:13:16.739Z,99.90
2023-05-31T05:15:43.521Z,99.90
2023-05-31T05:18:10.445Z,99.90
2023-05-31T05:20:37.327Z,99.90
2023-05-31T05:23:04.183Z,99.90
2023-05-31T05:25:30.931Z,99.90
2023-05-31T05:27:59.014Z,99.90
2023-05-31T05:30:32.001Z,99.90
2023-05-31T05:32:58.869Z,99.90
2023-05-31T05:35:27.604Z,99.90
2023-05-31T05:37:54.362Z,99.90
2023-05-31T05:40:21.138Z,99.90
2023-05-31T05:42:48.895Z,99.90
2023-05-31T05:45:17.176Z,99.90
2023-05-31T05:47:43.974Z,99.90
2023-05-31T05:50:11.497Z,99.90
2023-05-31T05:52:38.379Z,99.90
2023-05-31T05:55:05.514Z,99.90
2023-05-31T05:57:32.283Z,99.90
2023-05-31T05:59:59.191Z,99.90
2023-05-31T06:02:27.331Z,99.90
2023-05-31T06:04:54.212Z,99.90
2023-05-31T06:07:20.981Z,99.90
2023-05-31T06:09:47.774Z,99.90
2023-05-31T06:12:15.244Z,99.90
2023-05-31T06:14:42.054Z,99.90
2023-05-31T06:17:08.861Z,99.90
2023-05-31T06:19:36.988Z,99.90
2023-05-31T06:22:03.989Z,99.90
2023-05-31T06:24:30.854Z,99.90
2023-05-31T06:26:57.629Z,99.90
2023-05-31T06:29:24.430Z,99.90
2023-05-31T06:31:51.258Z,99.90
2023-05-31T06:34:21.143Z,99.90
2023-05-31T06:36:49.254Z,99.90
2023-05-31T06:39:16.011Z,99.90
2023-05-31T06:41:42.825Z,99.90
2023-05-31T06:44:09.590Z,99.90
2023-05-31T06:46:36.362Z,99.90
2023-05-31T06:49:11.831Z,99.90
2023-05-31T06:51:39.722Z,99.90
2023-05-31T06:54:08.819Z,99.90
2023-05-31T06:56:35.631Z,99.90
2023-05-31T06:59:02.436Z,99.90
2023-05-31T07:01:29.239Z,99.90
2023-05-31T07:03:56.225Z,99.90
2023-05-31T07:06:23.852Z,99.90
2023-05-31T07:08:50.637Z,99.90
2023-05-31T07:11:19.008Z,99.90
2023-05-31T07:13:45.800Z,99.90
2023-05-31T07:16:12.891Z,99.90
2023-05-31T07:18:39.725Z,99.90
2023-05-31T07:21:06.620Z,99.90
2023-05-31T07:23:33.423Z,99.90
2023-05-31T07:26:00.200Z,99.90
2023-05-31T07:28:28.378Z,99.90
2023-05-31T07:30:55.242Z,99.90
2023-05-31T07:33:29.077Z,99.90
2023-05-31T07:35:59.078Z,99.80
2023-05-31T07:38:26.069Z,99.50
2023-05-31T07:40:53.037Z,99.50
2023-05-31T07:43:20.076Z,98.00
2023-05-31T07:45:48.499Z,98.20
2023-05-31T07:48:15.315Z,97.10
2023-05-31T07:50:42.094Z,98.00
2023-05-31T07:53:08.883Z,97.60
2023-05-31T07:55:35.700Z,97.60
2023-05-31T07:58:03.670Z,97.80
2023-05-31T08:00:32.294Z,97.70
2023-05-31T08:03:01.990Z,97.70
2023-05-31T08:05:28.863Z,98.00
2023-05-31T08:07:55.706Z,99.70
2023-05-31T08:10:22.451Z,99.40
2023-05-31T08:12:49.240Z,99.90
2023-05-31T08:15:15.999Z,99.90
2023-05-31T08:17:44.225Z,99.90
2023-05-31T08:20:12.884Z,99.90
2023-05-31T08:22:39.569Z,99.30
2023-05-31T08:25:07.023Z,99.20
2023-05-31T08:27:35.271Z,98.40
2023-05-31T08:30:02.154Z,98.10
2023-05-31T08:32:28.971Z,96.80
2023-05-31T08:34:55.776Z,97.20
2023-05-31T08:37:23.907Z,97.80
2023-05-31T08:39:50.692Z,97.80
2023-05-31T08:42:22.635Z,98.80
2023-05-31T08:44:52.425Z,98.80
2023-05-31T08:47:24.338Z,98.30
2023-05-31T08:49:51.792Z,98.00
2023-05-31T08:52:18.964Z,98.10
2023-05-31T08:54:47.766Z,98.80
2023-05-31T08:57:14.907Z,99.10
2023-05-31T08:59:42.277Z,99.20
2023-05-31T09:02:11.056Z,98.60
2023-05-31T09:04:40.865Z,99.20
2023-05-31T09:07:07.746Z,98.40
2023-05-31T09:09:34.633Z,98.40
2023-05-31T09:12:03.309Z,98.00
2023-05-31T09:14:30.964Z,97.60
2023-05-31T09:16:57.940Z,96.30
2023-05-31T09:19:24.726Z,96.70
2023-05-31T09:21:53.219Z,96.90
2023-05-31T09:24:20.152Z,97.00
2023-05-31T09:26:47.587Z,96.70
2023-05-31T09:29:16.030Z,96.10
2023-05-31T09:31:42.844Z,95.70
2023-05-31T09:34:25.303Z,95.70
2023-05-31T09:36:52.124Z,95.80
2023-05-31T09:39:19.016Z,95.70
2023-05-31T09:41:49.595Z,95.90
2023-05-31T09:44:17.878Z,96.00
2023-05-31T09:46:46.235Z,96.00
2023-05-31T09:49:13.563Z,94.70
2023-05-31T09:51:40.349Z,94.70
2023-05-31T09:54:11.857Z,94.40
2023-05-31T09:56:39.898Z,94.10
2023-05-31T09:59:07.116Z,94.40
2023-05-31T10:01:36.597Z,94.10
2023-05-31T10:04:04.222Z,93.90
2023-05-31T10:06:31.785Z,93.60
2023-05-31T10:08:58.574Z,93.30
2023-05-31T10:11:28.044Z,92.90
2023-05-31T10:14:00.169Z,92.10
2023-05-31T10:16:29.514Z,92.70
2023-05-31T10:19:03.097Z,93.40
2023-05-31T10:21:30.256Z,93.70
2023-05-31T10:24:02.873Z,92.50
2023-05-31T10:26:36.550Z,91.00
2023-05-31T10:29:10.821Z,91.20
2023-05-31T10:31:41.856Z,91.30
2023-05-31T10:34:17.120Z,90.90
2023-05-31T10:36:44.971Z,90.90
2023-05-31T10:39:20.412Z,90.50
2023-05-31T10:41:54.493Z,90.90
2023-05-31T10:44:28.949Z,90.70
2023-05-31T10:47:02.270Z,90.70
2023-05-31T10:49:33.639Z,90.50
2023-05-31T10:52:05.613Z,89.70
2023-05-31T10:54:34.064Z,89.80
2023-05-31T10:57:04.487Z,90.20
2023-05-31T10:59:40.679Z,89.80
2023-05-31T11:02:09.341Z,89.70
2023-05-31T11:04:37.769Z,89.20
2023-05-31T11:07:13.510Z,88.30
2023-05-31T11:09:40.544Z,88.00
2023-05-31T11:12:07.575Z,88.00
2023-05-31T11:14:34.455Z,85.90
2023-05-31T11:17:17.242Z,87.20
2023-05-31T11:19:55.530Z,85.70
2023-05-31T11:22:28.924Z,85.50
2023-05-31T11:24:56.872Z,87.00
2023-05-31T11:27:34.466Z,87.60
2023-05-31T11:30:01.320Z,86.80
2023-05-31T11:33:07.868Z,87.70
2023-05-31T11:35:36.167Z,84.60
2023-05-31T11:38:04.925Z,85.40
2023-05-31T11:40:31.785Z,86.40
2023-05-31T11:43:06.755Z,85.40
2023-05-31T11:45:38.476Z,86.80
2023-05-31T11:48:18.279Z,86.80
2023-05-31T11:50:46.491Z,85.40
2023-05-31T11:53:15.124Z,84.30
2023-05-31T11:55:48.529Z,85.20
2023-05-31T11:58:20.134Z,85.70
2023-05-31T12:00:47.199Z,84.30
2023-05-31T12:03:16.087Z,84.40
2023-05-31T12:05:43.272Z,86.30
2023-05-31T12:08:11.414Z,85.10
2023-05-31T12:10:40.857Z,84.70
2023-05-31T12:13:07.669Z,86.20
2023-05-31T12:15:34.484Z,84.40
2023-05-31T12:18:01.625Z,84.90
2023-05-31T12:20:29.795Z,84.40
2023-05-31T12:23:11.627Z,84.80
2023-05-31T12:25:47.154Z,83.30
2023-05-31T12:28:14.073Z,83.30
2023-05-31T12:30:47.881Z,82.50
2023-05-31T12:33:15.272Z,83.20
2023-05-31T12:35:43.511Z,84.20
2023-05-31T12:38:11.992Z,83.90
2023-05-31T12:40:39.060Z,82.50
2023-05-31T12:43:06.679Z,83.40
2023-05-31T12:45:38.912Z,82.10
2023-05-31T12:48:08.517Z,81.90
2023-05-31T12:50:35.483Z,82.70
2023-05-31T12:53:06.268Z,83.80
2023-05-31T12:55:34.406Z,82.00
2023-05-31T12:58:04.129Z,82.50
2023-05-31T13:00:33.609Z,83.10
2023-05-31T13:03:00.499Z,81.90
2023-05-31T13:05:29.267Z,83.00
2023-05-31T13:08:01.267Z,82.90
2023-05-31T13:10:28.093Z,81.00
2023-05-31T13:12:56.261Z,80.60
2023-05-31T13:15:23.094Z,82.10
2023-05-31T13:17:49.955Z,82.00
2023-05-31T13:20:17.103Z,80.60
2023-05-31T13:22:43.909Z,82.30
2023-05-31T13:25:12.245Z,82.20
2023-05-31T13:27:39.106Z,81.50
2023-05-31T13:30:10.924Z,80.10
2023-05-31T13:32:37.772Z,80.60
2023-05-31T13:35:05.582Z,82.10
2023-05-31T13:37:32.453Z,81.40
2023-05-31T13:40:02.373Z,80.60
2023-05-31T13:42:29.187Z,80.10
2023-05-31T13:44:56.141Z,81.40
2023-05-31T13:47:24.351Z,81.10
2023-05-31T13:49:51.189Z,79.70
2023-05-31T13:52:17.996Z,79.30
2023-05-31T13:54:44.802Z,80.30
2023-05-31T13:57:11.567Z,79.10
2023-05-31T13:59:38.343Z,79.30
2023-05-31T14:02:05.356Z,79.60
2023-05-31T14:04:33.516Z,78.80
2023-05-31T14:07:00.406Z,80.90
2023-05-31T14:09:27.192Z,80.00
2023-05-31T14:12:00.181Z,79.30
2023-05-31T14:14:29.484Z,79.80
2023-05-31T14:16:56.359Z,79.60
2023-05-31T14:19:25.830Z,79.60
2023-05-31T14:23:03.124Z,79.20
2023-05-31T14:25:29.843Z,78.60
2023-05-31T14:27:56.657Z,79.40
2023-05-31T14:30:23.558Z,80.00
2023-05-31T14:32:53.176Z,80.50
2023-05-31T14:35:20.442Z,81.30
2023-05-31T14:37:56.487Z,81.40
2023-05-31T14:40:32.596Z,79.30
2023-05-31T14:43:02.480Z,79.00
2023-05-31T14:45:29.238Z,80.90
2023-05-31T14:47:56.244Z,80.50
2023-05-31T14:50:23.186Z,80.00
2023-05-31T14:52:49.997Z,79.70
2023-05-31T14:55:16.824Z,80.80
2023-05-31T14:57:44.985Z,79.90
2023-05-31T15:00:15.804Z,79.40
2023-05-31T15:02:45.601Z,79.80
2023-05-31T15:05:12.412Z,80.00
2023-05-31T15:07:39.226Z,80.20
2023-05-31T15:10:06.762Z,80.20
2023-05-31T15:12:33.618Z,77.90
2023-05-31T15:15:02.926Z,77.80
2023-05-31T15:17:29.947Z,77.60
2023-05-31T15:20:02.023Z,77.60
2023-05-31T15:22:30.136Z,78.90
2023-05-31T15:24:59.603Z,78.80
2023-05-31T15:27:29.510Z,78.00
2023-05-31T15:29:56.364Z,78.70
2023-05-31T15:32:24.482Z,77.10
2023-05-31T15:34:51.284Z,78.20
2023-05-31T15:37:18.165Z,77.70
2023-05-31T15:39:45.004Z,76.90
2023-05-31T15:42:11.832Z,78.50
2023-05-31T15:44:41.028Z,79.00
2023-05-31T15:47:08.359Z,79.30
2023-05-31T15:49:36.489Z,78.30
2023-05-31T15:52:03.449Z,78.50
2023-05-31T15:54:30.273Z,78.30
2023-05-31T15:56:57.102Z,78.20
2023-05-31T15:59:23.974Z,79.00
2023-05-31T16:01:50.826Z,79.30
2023-05-31T16:04:17.676Z,78.50
2023-05-31T16:06:45.833Z,77.10
2023-05-31T16:09:12.666Z,77.10
2023-05-31T16:11:39.478Z,77.10
2023-05-31T16:14:06.323Z,78.20
2023-05-31T16:16:33.146Z,78.40
2023-05-31T16:19:00.024Z,78.40
2023-05-31T16:21:27.055Z,78.50
2023-05-31T16:23:55.378Z,78.70
2023-05-31T16:26:22.388Z,78.50
2023-05-31T16:28:49.397Z,78.70
2023-05-31T16:31:21.625Z,80.00
2023-05-31T16:33:48.781Z,78.60
2023-05-31T16:36:15.678Z,79.20
2023-05-31T16:38:42.439Z,78.70
2023-05-31T16:41:10.723Z,77.90
2023-05-31T16:43:37.549Z,78.50
2023-05-31T16:46:04.607Z,79.00
2023-05-31T16:48:31.550Z,78.20
2023-05-31T16:50:58.386Z,79.20
2023-05-31T16:53:25.222Z,78.20
2023-05-31T16:55:54.083Z,78.20
2023-05-31T16:58:29.486Z,78.60
2023-05-31T17:00:56.289Z,79.40
2023-05-31T17:03:23.307Z,80.40
2023-05-31T17:05:50.431Z,80.30
2023-05-31T17:08:17.345Z,80.80
2023-05-31T17:10:44.290Z,80.40
2023-05-31T17:13:11.203Z,83.80
2023-05-31T17:15:42.118Z,85.90
2023-05-31T17:18:08.999Z,87.00
2023-05-31T17:20:41.054Z,87.60
2023-05-31T17:23:07.816Z,88.90
2023-05-31T17:25:34.624Z,89.10
2023-05-31T17:28:01.458Z,89.80
2023-05-31T17:30:28.419Z,90.20
2023-05-31T17:32:56.790Z,90.20
2023-05-31T17:35:23.639Z,90.60
2023-05-31T17:37:50.465Z,90.60
2023-05-31T17:40:17.373Z,90.80
2023-05-31T17:42:44.779Z,91.00
2023-05-31T17:45:11.961Z,91.20
2023-05-31T17:47:39.028Z,91.50
2023-05-31T17:50:09.657Z,91.90
2023-05-31T17:52:38.196Z,92.10
2023-05-31T17:55:06.216Z,91.90
2023-05-31T17:57:33.654Z,92.10
2023-05-31T18:00:00.635Z,92.20
2023-05-31T18:02:27.737Z,92.10
2023-05-31T18:04:54.531Z,92.30
2023-05-31T18:07:22.694Z,92.40
2023-05-31T18:09:49.537Z,92.50
2023-05-31T18:12:16.319Z,92.70
2023-05-31T18:14:43.096Z,93.10
2023-05-31T18:17:10.009Z,93.00
2023-05-31T18:19:36.807Z,92.90
2023-05-31T18:22:04.128Z,93.10
2023-05-31T18:24:32.526Z,93.10
2023-05-31T18:27:13.028Z,93.20
2023-05-31T18:29:39.934Z,93.30
2023-05-31T18:32:07.610Z,93.50
2023-05-31T18:34:34.755Z,93.50
2023-05-31T18:37:03.848Z,93.60
2023-05-31T18:39:32.063Z,93.60
2023-05-31T18:41:58.880Z,93.80
2023-05-31T18:44:26.860Z,93.80
2023-05-31T18:46:53.739Z,94.20
2023-05-31T18:49:20.680Z,94.00
2023-05-31T18:51:47.492Z,94.30
2023-05-31T18:54:14.519Z,94.40
2023-05-31T18:56:42.632Z,94.70
2023-05-31T18:59:09.430Z,95.00
2023-05-31T19:01:40.301Z,95.60
2023-05-31T19:04:07.345Z,96.20
2023-05-31T19:06:36.905Z,96.40
2023-05-31T19:09:07.100Z,96.60
2023-05-31T19:11:34.091Z,97.20
2023-05-31T19:14:02.297Z,98.10
2023-05-31T19:16:29.138Z,98.70
2023-05-31T19:18:56.152Z,99.10
2023-05-31T19:21:23.015Z,99.20
2023-05-31T19:23:49.817Z,99.60
2023-05-31T19:26:16.638Z,99.90
2023-05-31T19:28:43.549Z,99.90
2023-05-31T19:31:11.716Z,99.90
2023-05-31T19:33:38.581Z,99.90
2023-05-31T19:36:05.786Z,99.90
2023-05-31T19:38:34.710Z,99.90
2023-05-31T19:41:01.934Z,99.90
2023-05-31T19:43:30.441Z,99.90
2023-05-31T19:45:58.510Z,99.90
2023-05-31T19:48:27.047Z,99.90
2023-05-31T19:50:55.114Z,99.90
2023-05-31T19:53:21.941Z,99.90
2023-05-31T19:55:48.908Z,99.90
2023-05-31T19:58:15.692Z,99.90
2023-05-31T20:00:42.520Z,99.90
2023-05-31T20:03:15.640Z,99.90
2023-05-31T20:05:43.849Z,99.90
2023-05-31T20:08:10.896Z,99.90
2023-05-31T20:10:37.675Z,99.90
2023-05-31T20:13:04.580Z,99.90
2023-05-31T20:15:31.391Z,99.90
2023-05-31T20:17:58.299Z,99.90
2023-05-31T20:20:25.143Z,99.90
2023-05-31T20:22:53.308Z,99.90
2023-05-31T20:25:20.287Z,99.90
2023-05-31T20:27:50.036Z,99.90
2023-05-31T20:30:19.587Z,99.90
2023-05-31T20:32:48.601Z,99.90
2023-05-31T20:35:15.513Z,99.90
2023-05-31T20:37:42.338Z,99.90
2023-05-31T20:40:11.754Z,99.90
2023-05-31T20:42:38.541Z,99.90
2023-05-31T20:45:07.058Z,99.90
2023-05-31T20:47:33.913Z,99.90
2023-05-31T20:50:00.779Z,99.90
2023-05-31T20:52:27.566Z,99.90
2023-05-31T20:54:54.436Z,99.90
2023-05-31T20:57:22.845Z,99.90
2023-05-31T20:59:49.776Z,99.90
2023-05-31T21:02:16.614Z,99.90
2023-05-31T21:04:43.438Z,99.90
2023-05-31T21:07:10.288Z,99.90
2023-05-31T21:09:37.067Z,99.90
2023-05-31T21:12:04.407Z,99.90
2023-05-31T21:14:32.635Z,99.90
2023-05-31T21:16:59.429Z,99.90
2023-05-31T21:19:26.292Z,99.90
2023-05-31T21:21:53.170Z,99.90
2023-05-31T21:24:20.035Z,99.90
2023-05-31T21:26:46.866Z,99.90
2023-05-31T21:29:13.635Z,99.90
2023-05-31T21:31:41.888Z,99.90
2023-05-31T21:34:08.695Z,99.90
2023-05-31T21:36:35.552Z,99.90
2023-05-31T21:39:17.245Z,99.90
2023-05-31T21:41:44.065Z,99.90
2023-05-31T21:44:10.952Z,99.90
2023-05-31T21:46:37.899Z,99.90
2023-05-31T21:49:06.026Z,99.90
2023-05-31T21:51:34.656Z,99.90
2023-05-31T21:54:03.676Z,99.90
2023-05-31T21:56:30.295Z,99.90
2023-05-31T21:58:57.254Z,99.90
2023-05-31T22:01:24.328Z,99.90
2023-05-31T22:03:51.652Z,99.90
2023-05-31T22:06:20.158Z,99.90
2023-05-31T22:08:47.090Z,99.90
2023-05-31T22:11:13.862Z,99.90
2023-05-31T22:13:40.642Z,99.90
2023-05-31T22:16:07.481Z,99.90
2023-05-31T22:18:34.300Z,99.90
2023-05-31T22:21:01.403Z,99.90
2023-05-31T22:23:29.812Z,99.90
2023-05-31T22:25:59.348Z,99.90
2023-05-31T22:28:33.492Z,99.90
2023-05-31T22:31:03.858Z,99.90
2023-05-31T22:33:31.075Z,99.90
2023-05-31T22:35:57.921Z,99.90
2023-05-31T22:38:24.714Z,99.90
2023-05-31T22:40:52.855Z,99.90
2023-05-31T22:43:19.677Z,99.90
2023-05-31T22:45:46.620Z,99.90
2023-05-31T22:48:13.395Z,99.90
2023-05-31T22:50:40.216Z,99.90
2023-05-31T22:53:07.035Z,99.90
2023-05-31T22:55:33.915Z,99.90
2023-05-31T22:58:02.393Z,99.90
2023-05-31T23:00:32.071Z,99.90
2023-05-31T23:02:59.000Z,99.90
2023-05-31T23:05:25.988Z,99.90
2023-05-31T23:07:53.387Z,99.90
2023-05-31T23:10:20.572Z,99.90
2023-05-31T23:12:47.623Z,99.90
2023-05-31T23:15:16.301Z,99.90
2023-05-31T23:17:43.210Z,99.90
2023-05-31T23:20:12.194Z,99.90
2023-05-31T23:22:39.422Z,99.90
2023-05-31T23:25:07.253Z,99.90
2023-05-31T23:27:34.559Z,99.90
2023-05-31T23:30:01.343Z,99.90
2023-05-31T23:32:29.506Z,99.90
2023-05-31T23:34:56.501Z,99.90
2023-05-31T23:37:23.340Z,99.90
2023-05-31T23:39:50.161Z,99.90
2023-05-31T23:42:17.054Z,99.90
2023-05-31T23:44:43.875Z,99.90
2023-05-31T23:47:10.752Z,99.90
2023-05-31T23:49:39.397Z,99.90
2023-05-31T23:52:06.862Z,99.90
2023-05-31T23:54:33.801Z,99.90
2023-05-31T23:57:00.659Z,99.90
2023-05-31T23:59:27.817Z,99.90
